Time;durP1;ratioP1;P1;durP2;ratioP2;P2;SDS_P1;SDS_P2;PMS_P1;PMS_P2;Temp;Humidity;BMP_temperature;BMP_pressure;BME280_temperature;BME280_humidity;BME280_pressure;Samples;Min_cycle;Max_cycle;Signal;HPM_P1;HPM_P2
2022/09/06 00:02:21;;;;;;;1.00;0.68;;;;;;;19.57;68.82;101678.84;5055597;27;96848;-30
2022/09/06 00:04:47;;;;;;;2.70;0.65;;;;;;;19.52;68.72;101677.41;5055778;27;97970;-29
2022/09/06 00:07:13;;;;;;;1.75;0.70;;;;;;;19.55;69.18;101690.00;5036891;27;100924;-30
2022/09/06 00:09:38;;;;;;;2.88;0.88;;;;;;;19.60;68.41;101695.97;5055546;27;96432;-30
2022/09/06 00:12:04;;;;;;;2.28;0.60;;;;;;;19.59;69.17;101696.09;5055177;27;96783;-30
2022/09/06 00:14:29;;;;;;;1.88;0.90;;;;;;;19.55;68.45;101697.38;5037040;27;99518;-30
2022/09/06 00:16:54;;;;;;;0.82;0.52;;;;;;;19.55;70.09;101705.63;5055636;27;100372;-30
2022/09/06 00:19:19;;;;;;;1.30;0.63;;;;;;;19.51;68.58;101705.88;5054934;27;110884;-29
2022/09/06 00:21:45;;;;;;;0.88;0.60;;;;;;;19.47;70.27;101709.00;5055816;27;96858;-29
2022/09/06 00:24:10;;;;;;;3.80;0.73;;;;;;;19.49;68.96;101716.13;5054578;27;99247;-31
2022/09/06 00:26:35;;;;;;;2.70;1.08;;;;;;;19.52;69.04;101709.47;5055443;27;97988;-30
2022/09/06 00:29:01;;;;;;;1.95;0.77;;;;;;;19.52;69.40;101709.47;5055679;27;96521;-31
2022/09/06 00:31:26;;;;;;;3.33;1.00;;;;;;;19.56;68.78;101723.84;5054453;27;113812;-31
2022/09/06 00:33:52;;;;;;;2.42;0.90;;;;;;;19.47;68.70;101715.41;5055274;27;98049;-30
2022/09/06 00:36:19;;;;;;;2.35;0.68;;;;;;;19.46;68.93;101713.63;5054970;27;97791;-32
2022/09/06 00:38:44;;;;;;;1.00;0.77;;;;;;;19.46;68.73;101702.66;5037093;27;96583;-31
2022/09/06 00:41:12;;;;;;;1.92;0.82;;;;;;;19.46;69.00;101688.03;5055839;27;96851;-31
2022/09/06 00:43:37;;;;;;;1.30;0.60;;;;;;;19.46;68.48;101686.16;5036473;27;101396;-30
2022/09/06 00:46:05;;;;;;;2.53;0.88;;;;;;;19.47;68.33;101671.44;5055099;27;97326;-31
2022/09/06 00:48:31;;;;;;;2.65;0.85;;;;;;;19.40;69.94;101661.97;5036455;27;96724;-31
2022/09/06 00:51:01;;;;;;;1.17;0.70;;;;;;;19.39;69.65;101648.34;5055510;27;96739;-30
2022/09/06 00:53:27;;;;;;;2.17;0.80;;;;;;;19.36;69.43;101640.38;5036642;27;101052;-31
2022/09/06 00:55:53;;;;;;;0.63;0.47;;;;;;;19.36;71.68;101627.50;5036423;27;100793;-30
2022/09/06 00:58:19;;;;;;;1.48;0.80;;;;;;;19.37;70.44;101625.63;5036814;27;96716;-32
2022/09/06 01:00:45;;;;;;;1.10;0.70;;;;;;;19.36;70.21;101623.91;5036837;27;97032;-29
2022/09/06 01:03:11;;;;;;;1.48;0.75;;;;;;;19.31;71.02;101616.06;5054601;27;99331;-30
2022/09/06 01:05:50;;;;;;;3.53;1.02;;;;;;;19.35;70.83;101605.66;5036504;27;100843;-30
2022/09/06 01:08:30;;;;;;;3.20;1.27;;;;;;;19.42;71.13;101604.13;5036631;27;96594;-29
2022/09/06 01:11:22;;;;;;;1.50;0.95;;;;;;;19.45;72.39;101592.84;5055203;27;96522;-30
2022/09/06 01:13:57;;;;;;;1.23;0.65;;;;;;;19.47;70.93;101585.34;5020283;28;101701;-30
2022/09/06 01:16:42;;;;;;;1.30;1.00;;;;;;;19.47;72.41;101575.25;5017847;28;97319;-30
2022/09/06 01:19:28;;;;;;;1.73;1.10;;;;;;;19.50;71.45;101568.63;5016631;28;96784;-30
2022/09/06 01:22:06;;;;;;;1.40;1.10;;;;;;;19.51;71.03;101562.09;5016683;28;96657;-31
2022/09/06 01:25:10;;;;;;;1.27;1.00;;;;;;;19.53;71.73;101557.34;5016358;28;100882;-30
2022/09/06 01:28:03;;;;;;;1.73;1.17;;;;;;;19.50;70.51;101546.63;5016254;28;100832;-30
2022/09/06 01:30:33;;;;;;;1.52;1.10;;;;;;;19.45;70.42;101538.78;5016451;28;96577;-30
2022/09/06 01:33:15;;;;;;;2.75;1.33;;;;;;;19.41;69.70;101539.19;5016865;28;96586;-30
2022/09/06 01:36:01;;;;;;;2.38;1.23;;;;;;;19.36;69.91;101527.75;5016086;28;101079;-29
2022/09/06 01:38:27;;;;;;;3.38;1.70;;;;;;;19.33;69.72;101526.13;5016165;28;100467;-30
2022/09/06 01:40:52;;;;;;;2.17;1.50;;;;;;;19.33;69.83;101520.66;5015841;28;96480;-30
2022/09/06 01:43:25;;;;;;;2.08;1.40;;;;;;;19.36;70.05;101519.50;5017531;28;96836;-31
2022/09/06 01:46:13;;;;;;;1.40;1.10;;;;;;;19.36;70.86;101525.00;5015844;28;101035;-30
2022/09/06 01:49:08;;;;;;;2.33;1.33;;;;;;;19.35;70.78;101518.59;5015969;28;101028;-30
2022/09/06 01:51:52;;;;;;;4.28;1.10;;;;;;;19.31;70.26;101509.78;5016298;28;96664;-31
2022/09/06 01:54:33;;;;;;;3.22;1.58;;;;;;;19.33;70.99;101517.91;5017705;28;96769;-30
2022/09/06 01:57:14;;;;;;;3.10;1.35;;;;;;;19.27;71.14;101518.41;5015771;28;100827;-29
2022/09/06 01:59:43;;;;;;;;;;;;;;;19.31;71.42;101529.00;5016256;28;101116;-30
2022/09/06 02:02:23;;;;;;;2.38;1.33;;;;;;;19.30;70.85;101523.63;5017613;28;96609;-30
2022/09/06 02:04:57;;;;;;;3.22;1.30;;;;;;;19.31;70.91;101526.25;5015933;28;96794;-32
2022/09/06 02:07:25;;;;;;;2.42;1.42;;;;;;;19.33;71.32;101538.97;5015203;28;98916;-31
2022/09/06 02:10:02;;;;;;;5.22;1.30;;;;;;;19.33;72.25;101539.88;5015538;28;101151;-30
2022/09/06 02:12:31;;;;;;;5.35;1.48;;;;;;;19.32;70.74;101535.38;5025267;27;96770;-29
2022/09/06 02:15:12;;;;;;;3.00;1.50;;;;;;;19.29;71.20;101532.91;5039370;27;96706;-32
2022/09/06 02:17:50;;;;;;;2.10;1.43;;;;;;;19.30;71.21;101540.97;5038798;27;100428;-29
2022/09/06 02:20:20;;;;;;;2.67;1.42;;;;;;;19.28;70.22;101542.13;5057569;27;97893;-29
2022/09/06 02:22:48;;;;;;;2.83;1.35;;;;;;;19.29;70.26;101531.00;5038814;27;96635;-31
2022/09/06 02:25:25;;;;;;;1.98;1.30;;;;;;;19.29;70.90;101536.50;5039575;27;97198;-29
2022/09/06 02:27:50;;;;;;;3.28;1.27;;;;;;;19.25;70.61;101537.78;5038897;27;101113;-29
2022/09/06 02:30:16;;;;;;;2.47;1.30;;;;;;;19.26;69.96;101544.16;5057557;27;96608;-32
2022/09/06 02:33:05;;;;;;;1.98;1.23;;;;;;;19.26;71.26;101541.41;5056868;27;96517;-30
2022/09/06 02:35:30;;;;;;;2.40;1.45;;;;;;;19.23;70.58;101547.16;5057095;27;96729;-30
2022/09/06 02:37:56;;;;;;;2.75;1.40;;;;;;;19.23;70.09;101544.41;5056835;27;99310;-30
2022/09/06 02:40:22;;;;;;;3.20;1.52;;;;;;;19.20;70.63;101540.06;5056612;27;98801;-30
2022/09/06 02:42:47;;;;;;;5.32;1.40;;;;;;;19.19;70.45;101538.31;5038664;27;96579;-32
2022/09/06 02:45:12;;;;;;;3.38;1.88;;;;;;;19.19;70.60;101546.56;5056858;27;98436;-31
2022/09/06 02:47:38;;;;;;;3.13;1.65;;;;;;;19.17;70.72;101543.06;5056262;27;99460;-31
2022/09/06 02:50:03;;;;;;;2.75;1.55;;;;;;;19.18;70.86;101546.69;5056973;27;99271;-30
2022/09/06 02:52:29;;;;;;;4.32;1.95;;;;;;;19.14;70.97;101543.34;5056803;27;96720;-31
2022/09/06 02:54:55;;;;;;;2.97;1.70;;;;;;;19.15;70.61;101547.81;5056824;27;96784;-30
2022/09/06 02:57:20;;;;;;;6.60;1.60;;;;;;;19.14;70.90;101550.69;5055971;27;99644;-30
2022/09/06 02:59:46;;;;;;;2.30;1.50;;;;;;;19.09;71.00;101548.34;5056928;27;97514;-30
2022/09/06 03:02:11;;;;;;;3.45;2.00;;;;;;;19.10;70.97;101555.59;5056327;27;96631;-29
2022/09/06 03:04:36;;;;;;;3.55;2.08;;;;;;;19.08;69.98;101555.72;5057105;27;96827;-30
2022/09/06 03:07:02;;;;;;;4.32;2.15;;;;;;;19.04;70.55;101557.00;5056610;27;97390;-30
2022/09/06 03:09:27;;;;;;;8.18;2.47;;;;;;;19.01;71.12;101557.25;5056618;27;97756;-30
2022/09/06 03:11:52;;;;;;;3.88;2.15;;;;;;;18.98;70.37;101556.66;5055879;27;107307;-29
2022/09/06 03:14:18;;;;;;;6.07;2.17;;;;;;;19.00;70.38;101561.00;5057102;27;96589;-29
2022/09/06 03:16:44;;;;;;;7.10;2.30;;;;;;;18.97;70.44;101569.50;5055943;27;99785;-30
2022/09/06 03:19:09;;;;;;;5.00;2.42;;;;;;;18.96;70.72;101576.00;5056077;27;98788;-29
2022/09/06 03:21:34;;;;;;;4.10;2.17;;;;;;;18.92;71.80;101574.50;5055858;27;96764;-30
2022/09/06 03:24:00;;;;;;;4.85;2.35;;;;;;;18.89;70.88;101589.38;5056461;27;96909;-30
2022/09/06 03:26:26;;;;;;;5.78;2.40;;;;;;;18.91;70.39;101586.50;5056326;27;98063;-30
2022/09/06 03:28:52;;;;;;;3.17;2.15;;;;;;;18.84;70.84;101586.16;5037720;27;101366;-30
2022/09/06 03:31:17;;;;;;;3.90;1.83;;;;;;;18.85;71.26;101596.16;5056784;27;96501;-30
2022/09/06 03:33:42;;;;;;;7.35;1.92;;;;;;;18.86;71.29;101599.75;5056277;27;98227;-30
2022/09/06 03:36:08;;;;;;;3.75;1.98;;;;;;;18.86;72.07;101597.00;5055436;27;105021;-30
2022/09/06 03:38:33;;;;;;;4.10;2.13;;;;;;;18.85;70.98;101595.25;5056284;27;98746;-30
2022/09/06 03:40:59;;;;;;;4.20;2.22;;;;;;;18.91;72.38;101602.97;5056198;27;96536;-31
2022/09/06 03:43:25;;;;;;;7.40;2.13;;;;;;;18.83;71.17;101581.69;5037755;27;96933;-29
2022/09/06 03:45:53;;;;;;;4.00;2.15;;;;;;;18.89;72.19;101563.81;5037033;27;101207;-31
2022/09/06 03:48:21;;;;;;;4.32;2.05;;;;;;;18.93;71.00;101558.94;5055800;27;97264;-29
2022/09/06 03:50:49;;;;;;;3.15;1.65;;;;;;;18.94;71.17;101561.53;5037817;27;96504;-31
2022/09/06 03:53:16;;;;;;;4.68;2.58;;;;;;;18.98;71.28;101573.13;5037732;27;96714;-29
2022/09/06 03:55:46;;;;;;;4.38;2.00;;;;;;;19.00;71.72;101582.13;5037447;27;101185;-29
2022/09/06 03:58:11;;;;;;;7.40;2.17;;;;;;;18.99;71.94;101585.84;5037279;27;101359;-30
2022/09/06 04:00:37;;;;;;;4.45;2.40;;;;;;;19.00;71.79;101582.97;5055534;27;96706;-29
2022/09/06 04:03:02;;;;;;;2.85;1.92;;;;;;;18.99;72.04;101583.97;5056069;27;96817;-29
2022/09/06 04:05:27;;;;;;;3.15;2.05;;;;;;;19.00;72.16;101576.63;5055667;27;97905;-32
2022/09/06 04:07:53;;;;;;;4.15;2.10;;;;;;;18.98;71.74;101604.19;5055649;27;97761;-29
2022/09/06 04:10:18;;;;;;;4.25;2.38;;;;;;;18.96;71.71;101597.97;5055123;27;103991;-29
2022/09/06 04:12:44;;;;;;;5.82;1.85;;;;;;;18.96;71.92;101614.44;5055192;27;96877;-29
2022/09/06 04:15:09;;;;;;;4.15;2.35;;;;;;;18.96;71.76;101614.44;5055048;27;99754;-30
2022/09/06 04:17:34;;;;;;;3.15;2.10;;;;;;;18.96;72.21;101603.47;5055079;27;97394;-29
2022/09/06 04:20:00;;;;;;;3.58;2.15;;;;;;;18.93;72.23;101609.22;5055678;27;96683;-30
2022/09/06 04:22:25;;;;;;;4.40;1.88;;;;;;;18.94;73.36;101610.94;5055767;27;96765;-29
2022/09/06 04:24:51;;;;;;;5.13;2.10;;;;;;;18.96;72.60;101627.31;5055314;27;97865;-30
2022/09/06 04:27:16;;;;;;;3.20;2.10;;;;;;;18.97;71.99;101618.91;5055412;27;99691;-30
2022/09/06 04:29:42;;;;;;;3.67;1.98;;;;;;;18.98;72.04;101625.31;5055228;27;96634;-30
2022/09/06 04:32:07;;;;;;;3.97;2.30;;;;;;;18.99;72.49;101614.16;5055391;27;96930;-30
2022/09/06 04:34:32;;;;;;;3.72;2.40;;;;;;;19.01;72.10;101612.16;5054788;27;97910;-30
2022/09/06 04:36:58;;;;;;;3.65;2.08;;;;;;;19.02;72.50;101613.94;5054952;27;99295;-30
2022/09/06 04:39:23;;;;;;;3.85;2.30;;;;;;;19.00;72.75;101624.16;5055138;27;100765;-31
2022/09/06 04:41:49;;;;;;;4.28;2.08;;;;;;;19.01;72.46;101642.38;5054957;27;97544;-30
2022/09/06 04:44:14;;;;;;;5.40;2.00;;;;;;;18.96;73.22;101624.56;5054602;27;99417;-30
2022/09/06 04:46:41;;;;;;;3.65;2.08;;;;;;;18.99;72.51;101632.53;5053492;27;99245;-30
2022/09/06 04:49:06;;;;;;;5.45;2.40;;;;;;;18.96;72.54;101630.06;5036963;27;96538;-29
2022/09/06 04:51:32;;;;;;;4.88;2.22;;;;;;;18.96;72.67;101622.69;5055337;27;96861;-30
2022/09/06 04:53:57;;;;;;;4.15;2.10;;;;;;;18.94;73.06;101621.94;5054667;27;99306;-29
2022/09/06 04:56:24;;;;;;;4.00;2.15;;;;;;;18.88;73.51;101625.22;5054641;27;102302;-30
2022/09/06 04:58:51;;;;;;;2.95;1.77;;;;;;;18.85;72.82;101619.97;5036167;27;96847;-31
2022/09/06 05:01:17;;;;;;;4.65;2.38;;;;;;;18.84;73.06;101618.22;5054826;27;96877;-31
2022/09/06 05:03:42;;;;;;;4.00;2.15;;;;;;;18.80;72.76;101614.84;5036432;27;100864;-30
2022/09/06 05:06:13;;;;;;;3.92;2.08;;;;;;;18.77;73.21;101609.63;5054770;27;97846;-31
2022/09/06 05:08:40;;;;;;;3.90;2.10;;;;;;;18.77;73.93;101619.75;5036745;27;97389;-30
2022/09/06 05:11:06;;;;;;;5.53;2.17;;;;;;;18.73;74.03;101601.75;5036769;27;96799;-32
2022/09/06 05:13:41;;;;;;;3.92;2.25;;;;;;;18.73;73.71;101590.78;5035759;27;101027;-29
2022/09/06 05:16:08;;;;;;;7.65;2.38;;;;;;;18.71;73.97;101595.50;5054834;27;99131;-30
2022/09/06 05:18:33;;;;;;;4.70;2.50;;;;;;;18.70;73.51;101589.16;5054797;27;96794;-29
2022/09/06 05:20:59;;;;;;;3.95;2.38;;;;;;;18.68;73.33;101589.28;5036390;27;96918;-31
2022/09/06 05:23:25;;;;;;;4.95;2.38;;;;;;;18.71;73.38;101590.94;5053750;27;99313;-30
2022/09/06 05:25:51;;;;;;;4.35;2.53;;;;;;;18.68;73.44;101586.53;5036059;27;101200;-30
2022/09/06 05:28:17;;;;;;;7.35;2.92;;;;;;;18.69;73.79;101584.69;5054378;27;96592;-30
2022/09/06 05:30:43;;;;;;;9.40;3.63;;;;;;;18.69;73.73;101590.19;5036334;27;96917;-30
2022/09/06 05:33:17;;;;;;;6.18;3.15;;;;;;;18.70;73.24;101583.66;5036139;27;101304;-29
2022/09/06 05:35:42;;;;;;;6.82;3.78;;;;;;;18.68;73.23;101574.69;5036085;27;100999;-29
2022/09/06 05:38:08;;;;;;;5.60;2.90;;;;;;;18.72;73.28;101583.56;5054460;27;96523;-30
2022/09/06 05:40:33;;;;;;;8.15;3.08;;;;;;;18.73;73.69;101574.31;5054158;27;113375;-30
2022/09/06 05:42:58;;;;;;;5.60;3.15;;;;;;;18.71;73.61;101566.22;5053812;27;103753;-30
2022/09/06 05:45:23;;;;;;;7.95;3.38;;;;;;;18.74;73.30;101570.56;5053612;27;120950;-29
2022/09/06 05:47:49;;;;;;;7.60;3.05;;;;;;;18.75;72.78;101566.81;5053728;27;101077;-30
2022/09/06 05:50:14;;;;;;;6.68;3.03;;;;;;;18.77;72.88;101567.59;5053915;27;109218;-30
2022/09/06 05:52:40;;;;;;;8.38;3.78;;;;;;;18.78;72.99;101574.81;5053855;27;102340;-29
2022/09/06 05:55:06;;;;;;;10.80;3.85;;;;;;;18.80;73.46;101575.56;5054079;27;97604;-29
2022/09/06 05:57:31;;;;;;;7.57;3.63;;;;;;;18.80;72.43;101559.09;5036430;27;96592;-31
2022/09/06 05:59:57;;;;;;;8.65;4.47;;;;;;;18.84;73.26;101572.44;5058119;27;96758;-30
2022/09/06 06:02:22;;;;;;;9.20;4.50;;;;;;;18.84;72.49;101568.81;5057584;27;98045;-30
2022/09/06 06:04:48;;;;;;;12.20;4.97;;;;;;;18.86;73.37;101569.56;5057879;27;97403;-30
2022/09/06 06:07:13;;;;;;;9.40;4.47;;;;;;;18.88;73.10;101560.19;5057678;27;96580;-29
2022/09/06 06:09:39;;;;;;;7.30;3.58;;;;;;;18.91;74.31;101555.44;5058016;27;96827;-29
2022/09/06 06:12:05;;;;;;;8.20;3.85;;;;;;;18.92;73.29;101563.53;5037374;27;100988;-29
2022/09/06 06:14:30;;;;;;;6.15;3.40;;;;;;;18.95;72.39;101552.31;5038874;27;102220;-30
2022/09/06 06:16:56;;;;;;;5.35;3.10;;;;;;;18.96;72.61;101558.66;5057604;27;96475;-30
2022/09/06 06:19:21;;;;;;;5.95;3.05;;;;;;;19.00;72.50;101558.28;5056600;27;108921;-29
2022/09/06 06:21:46;;;;;;;5.45;3.15;;;;;;;19.05;72.60;101553.25;5038614;27;101286;-30
2022/09/06 06:24:11;;;;;;;8.30;4.22;;;;;;;19.14;72.16;101551.59;5056757;27;99566;-29
2022/09/06 06:26:37;;;;;;;6.55;3.63;;;;;;;19.20;71.93;101548.28;5057429;27;96669;-29
2022/09/06 06:29:04;;;;;;;7.53;3.60;;;;;;;19.28;71.49;101553.13;5022657;27;96863;-31
2022/09/06 06:31:31;;;;;;;9.70;3.50;;;;;;;19.33;71.34;101537.13;5057014;27;97357;-29
2022/09/06 06:33:57;;;;;;;9.02;3.47;;;;;;;19.42;71.67;101536.28;5038543;27;101185;-30
2022/09/06 06:36:24;;;;;;;9.55;2.83;;;;;;;19.52;71.40;101539.09;5038430;27;96583;-29
2022/09/06 06:38:54;;;;;;;5.50;3.22;;;;;;;19.64;71.16;101534.38;5056985;27;96742;-31
2022/09/06 06:41:22;;;;;;;8.77;3.53;;;;;;;19.76;71.05;101536.09;5056627;27;99426;-29
2022/09/06 06:43:50;;;;;;;8.25;3.35;;;;;;;19.93;71.08;101534.56;5056819;27;97814;-29
2022/09/06 06:46:17;;;;;;;8.57;3.67;;;;;;;20.03;70.52;101535.47;5038857;27;96714;-29
2022/09/06 06:48:44;;;;;;;7.35;3.50;;;;;;;20.21;69.91;101543.91;5038857;27;96876;-30
2022/09/06 06:51:15;;;;;;;9.82;3.63;;;;;;;20.38;70.33;101542.41;5038419;27;100749;-29
2022/09/06 06:53:41;;;;;;;14.73;3.30;;;;;;;20.55;69.54;101541.72;5056715;27;98819;-30
2022/09/06 06:56:20;;;;;;;9.95;3.45;;;;;;;20.72;69.35;101542.03;5057159;27;96497;-30
2022/09/06 06:58:47;;;;;;;7.47;3.60;;;;;;;20.86;68.58;101540.75;5038617;27;96861;-29
2022/09/06 07:01:14;;;;;;;5.25;2.90;;;;;;;21.05;68.58;101542.63;5037842;27;100885;-30
2022/09/06 07:03:39;;;;;;;9.57;3.88;;;;;;;21.21;67.99;101542.88;5037999;27;101034;-30
2022/09/06 07:06:05;;;;;;;7.68;3.33;;;;;;;21.34;67.88;101548.09;5056759;27;96658;-30
2022/09/06 07:08:31;;;;;;;9.23;3.88;;;;;;;21.53;67.23;101544.47;5056755;27;96761;-29
2022/09/06 07:10:57;;;;;;;6.78;3.25;;;;;;;21.62;66.82;101544.44;5037031;27;101034;-29
2022/09/06 07:13:22;;;;;;;6.60;3.25;;;;;;;21.76;66.63;101539.44;5056053;27;97787;-29
2022/09/06 07:15:47;;;;;;;7.22;3.55;;;;;;;21.89;66.53;101537.22;5056743;27;96611;-29
2022/09/06 07:18:16;;;;;;;6.10;3.50;;;;;;;21.96;66.32;101543.03;5055587;27;96889;-29
2022/09/06 07:20:42;;;;;;;8.57;3.92;;;;;;;22.01;66.08;101524.97;5033035;27;100859;-29
2022/09/06 07:23:07;;;;;;;6.07;3.10;;;;;;;22.11;65.04;101524.06;5056157;27;97462;-29
2022/09/06 07:25:33;;;;;;;5.68;3.15;;;;;;;22.14;65.26;101523.75;5055597;27;106036;-30
2022/09/06 07:28:02;;;;;;;4.70;2.55;;;;;;;22.29;65.32;101522.25;5037454;27;96816;-31
2022/09/06 07:30:29;;;;;;;5.28;2.88;;;;;;;22.26;64.76;101517.03;5054534;27;99394;-29
2022/09/06 07:32:55;;;;;;;4.97;2.75;;;;;;;22.37;64.71;101511.28;5036378;27;100923;-30
2022/09/06 07:35:20;;;;;;;6.85;2.78;;;;;;;22.52;64.30;101513.50;5056175;27;96648;-29
2022/09/06 07:37:56;;;;;;;4.18;2.20;;;;;;;22.68;63.95;101517.31;5055086;27;96799;-29
2022/09/06 07:40:30;;;;;;;3.38;2.10;;;;;;;22.74;63.72;101521.34;5055784;27;99777;-30
2022/09/06 07:42:58;;;;;;;3.90;2.03;;;;;;;22.80;63.16;101529.00;5056181;27;98771;-32
2022/09/06 07:45:25;;;;;;;4.25;2.10;;;;;;;22.82;62.99;101529.72;5037789;27;96628;-33
2022/09/06 07:47:59;;;;;;;5.50;2.50;;;;;;;22.81;63.00;101527.09;5056119;27;96846;-30
2022/09/06 07:50:29;;;;;;;4.10;2.08;;;;;;;22.77;63.48;101526.56;5037039;27;101272;-31
2022/09/06 07:52:55;;;;;;;5.65;2.28;;;;;;;22.72;63.75;101523.41;5037382;27;100812;-30
2022/09/06 07:55:29;;;;;;;3.78;2.15;;;;;;;22.65;63.77;101520.41;5055937;27;103417;-30
2022/09/06 07:57:54;;;;;;;3.83;2.22;;;;;;;22.67;63.93;101523.00;5056237;27;96823;-30
2022/09/06 08:00:20;;;;;;;6.47;2.38;;;;;;;22.71;63.76;101520.78;5054896;27;118263;-29
2022/09/06 08:02:45;;;;;;;7.28;2.20;;;;;;;22.87;62.73;101529.25;5055492;27;98735;-30
2022/09/06 08:05:10;;;;;;;5.28;2.05;;;;;;;23.13;62.98;101540.38;5055246;27;111113;-32
2022/09/06 08:07:35;;;;;;;3.13;2.05;;;;;;;23.18;62.32;101539.91;5055959;27;101793;-30
2022/09/06 08:10:01;;;;;;;3.83;1.92;;;;;;;23.34;61.48;101536.41;5055278;27;109415;-30
2022/09/06 08:12:28;;;;;;;4.68;2.38;;;;;;;23.19;62.09;101531.47;5054769;27;100378;-29
2022/09/06 08:14:53;;;;;;;4.28;2.42;;;;;;;23.07;62.63;101527.19;5055045;27;96707;-29
2022/09/06 08:17:19;;;;;;;3.65;2.30;;;;;;;23.11;62.44;101539.69;5055677;27;96787;-30
2022/09/06 08:19:44;;;;;;;8.90;2.25;;;;;;;23.09;61.69;101538.97;5055108;27;99829;-31
2022/09/06 08:22:09;;;;;;;5.60;2.38;;;;;;;22.98;61.64;101539.19;5055177;27;97445;-30
2022/09/06 08:24:35;;;;;;;10.77;2.55;;;;;;;22.69;62.04;101537.50;5055525;27;96555;-30
2022/09/06 08:27:01;;;;;;;6.13;2.35;;;;;;;22.61;62.55;101540.19;5055425;27;96834;-30
2022/09/06 08:29:27;;;;;;;8.00;2.63;;;;;;;22.55;62.36;101538.94;5036846;27;101389;-30
2022/09/06 08:31:52;;;;;;;5.15;2.42;;;;;;;22.47;62.70;101536.94;5055656;27;97763;-30
2022/09/06 08:34:17;;;;;;;7.88;2.25;;;;;;;22.42;62.95;101547.56;5055235;27;96760;-30
2022/09/06 08:36:44;;;;;;;5.70;2.63;;;;;;;22.22;63.60;101540.44;5055446;27;96884;-32
2022/09/06 08:39:10;;;;;;;4.57;2.30;;;;;;;22.10;63.67;101534.22;5036223;27;101354;-30
2022/09/06 08:41:44;;;;;;;11.27;2.63;;;;;;;22.23;64.67;101536.66;5036616;27;99565;-30
2022/09/06 08:44:25;;;;;;;7.25;2.90;;;;;;;22.39;63.29;101539.63;5037179;27;96587;-30
2022/09/06 08:46:57;;;;;;;7.00;2.75;;;;;;;22.58;62.40;101535.00;5036964;27;96833;-31
2022/09/06 08:49:30;;;;;;;5.28;2.78;;;;;;;22.52;62.89;101532.84;5036496;27;100675;-30
2022/09/06 08:52:10;;;;;;;4.97;2.72;;;;;;;22.57;63.07;101536.00;5055167;27;97256;-30
2022/09/06 08:54:41;;;;;;;6.28;3.42;;;;;;;22.63;62.29;101532.63;5055368;27;96533;-30
2022/09/06 08:57:40;;;;;;;7.35;3.10;;;;;;;22.75;62.48;101547.94;5037306;27;96702;-32
2022/09/06 09:00:12;;;;;;;5.28;2.95;;;;;;;22.68;62.46;101531.13;5029708;27;101647;-30
2022/09/06 09:02:50;;;;;;;6.30;2.88;;;;;;;22.75;61.93;101542.41;5054291;27;97876;-29
2022/09/06 09:05:24;;;;;;;5.65;2.92;;;;;;;22.83;62.62;101544.38;5035147;27;96991;-30
2022/09/06 09:07:56;;;;;;;8.73;3.40;;;;;;;22.76;62.47;101543.28;5054888;27;96719;-30
2022/09/06 09:10:29;;;;;;;6.20;2.45;;;;;;;22.87;62.59;101546.69;5054665;27;99330;-30
2022/09/06 09:12:56;;;;;;;7.32;3.05;;;;;;;22.87;62.31;101549.44;5051877;27;97269;-30
2022/09/06 09:15:24;;;;;;;6.07;3.22;;;;;;;22.85;62.31;101548.72;5034709;28;96541;-30
2022/09/06 09:17:51;;;;;;;7.03;3.08;;;;;;;22.89;62.85;101552.91;5040892;27;97002;-30
2022/09/06 09:20:16;;;;;;;5.82;3.25;;;;;;;23.03;62.29;101553.44;5036035;27;101277;-30
2022/09/06 09:22:42;;;;;;;5.93;2.58;;;;;;;23.21;62.44;101550.63;5054817;27;97339;-32
2022/09/06 09:25:16;;;;;;;5.10;2.33;;;;;;;23.45;61.19;101563.78;5036486;27;96583;-30
2022/09/06 09:27:44;;;;;;;4.35;2.63;;;;;;;23.59;61.29;101554.03;5036394;27;96704;-30
2022/09/06 09:30:10;;;;;;;7.38;2.70;;;;;;;23.67;60.53;101546.66;5035557;27;101258;-30
2022/09/06 09:32:38;;;;;;;5.18;2.88;;;;;;;23.72;60.29;101552.56;5035163;27;100778;-31
2022/09/06 09:35:32;;;;;;;6.53;3.25;;;;;;;23.61;60.16;101554.75;5038769;27;96837;-30
2022/09/06 09:38:06;;;;;;;6.28;2.85;;;;;;;23.84;60.49;101557.88;5058361;27;96763;-30
2022/09/06 09:41:02;;;;;;;6.97;3.50;;;;;;;23.92;60.12;101556.00;5057777;27;99459;-29
2022/09/06 09:43:53;;;;;;;4.75;2.80;;;;;;;23.82;60.14;101549.72;5057723;27;99466;-30
2022/09/06 09:46:21;;;;;;;9.80;3.17;;;;;;;23.63;60.38;101555.47;5058331;27;96476;-31
2022/09/06 09:49:13;;;;;;;6.80;3.15;;;;;;;24.05;60.23;101558.34;5058358;27;96874;-30
2022/09/06 09:51:44;;;;;;;8.25;3.28;;;;;;;24.43;58.15;101547.75;5039525;27;101047;-30
2022/09/06 09:54:28;;;;;;;27.02;4.38;;;;;;;24.64;58.74;101557.53;5039234;27;100671;-30
2022/09/06 09:56:55;;;;;;;8.07;2.55;;;;;;;24.59;58.17;101549.72;5038915;27;96786;-30
2022/09/06 09:59:22;;;;;;;5.57;2.78;;;;;;;24.78;57.21;101551.31;5039560;27;96811;-30
2022/09/06 10:01:48;;;;;;;5.80;2.55;;;;;;;24.93;57.34;101557.94;5057221;27;99603;-30
2022/09/06 10:04:48;;;;;;;4.78;2.67;;;;;;;25.04;56.97;101558.63;5057592;27;97863;-30
2022/09/06 10:07:22;;;;;;;6.55;2.63;;;;;;;25.39;56.57;101565.78;5039411;27;96851;-30
2022/09/06 10:10:08;;;;;;;6.70;3.08;;;;;;;25.62;56.06;101552.94;5057820;27;96883;-31
2022/09/06 10:12:38;;;;;;;4.85;2.88;;;;;;;25.67;55.96;101555.19;5037636;27;101056;-30
2022/09/06 10:15:09;;;;;;;5.10;2.60;;;;;;;26.06;55.85;101563.59;5038392;27;100900;-31
2022/09/06 10:17:47;;;;;;;5.28;2.80;;;;;;;26.14;55.50;101561.81;5056730;27;96819;-30
2022/09/06 10:20:13;;;;;;;4.95;2.42;;;;;;;26.30;55.14;101561.75;5054915;27;96702;-31
2022/09/06 10:23:04;;;;;;;6.63;2.30;;;;;;;26.49;54.80;101558.53;5063055;27;101066;-31
2022/09/06 10:25:38;;;;;;;6.43;2.17;;;;;;;26.83;54.13;101557.31;4990966;28;99185;-30
2022/09/06 10:28:21;;;;;;;4.03;1.98;;;;;;;27.00;52.88;101568.31;5031695;27;96566;-30
2022/09/06 10:31:09;;;;;;;3.83;2.05;;;;;;;27.06;53.26;101564.81;5057984;27;96435;-30
2022/09/06 10:33:43;;;;;;;5.03;2.17;;;;;;;27.31;53.24;101568.28;5038819;27;101001;-31
2022/09/06 10:36:09;;;;;;;6.15;2.67;;;;;;;27.49;51.23;101571.59;5038806;27;101235;-30
2022/09/06 10:38:46;;;;;;;4.10;2.53;;;;;;;27.71;52.76;101575.38;5056992;27;96702;-30
2022/09/06 10:41:24;;;;;;;3.97;2.28;;;;;;;27.31;51.62;101583.03;5039320;27;96702;-30
2022/09/06 10:44:04;;;;;;;5.75;2.45;;;;;;;27.43;53.06;101575.13;5056793;27;97409;-30
2022/09/06 10:46:33;;;;;;;5.60;3.13;;;;;;;27.26;53.41;101576.31;5055503;27;101075;-30
2022/09/06 10:48:59;;;;;;;6.43;3.33;;;;;;;27.22;52.42;101586.09;5038008;27;96693;-30
2022/09/06 10:51:42;;;;;;;6.15;3.08;;;;;;;27.37;52.56;101575.88;5056966;27;96870;-30
2022/09/06 10:54:12;;;;;;;5.95;3.20;;;;;;;27.49;53.42;101568.81;5038530;27;101408;-31
2022/09/06 10:56:46;;;;;;;4.55;2.72;;;;;;;27.78;52.59;101578.28;5038365;27;100892;-31
2022/09/06 10:59:25;;;;;;;5.05;2.72;;;;;;;28.03;52.56;101569.66;5036924;27;96651;-31
2022/09/06 11:02:17;;;;;;;5.20;2.95;;;;;;;28.20;52.25;101576.78;5037901;27;96722;-30
2022/09/06 11:04:45;;;;;;;6.40;3.10;;;;;;;28.31;51.90;101576.28;5056449;27;97942;-31
2022/09/06 11:07:27;;;;;;;5.32;3.20;;;;;;;28.22;50.50;101576.56;5038600;27;99998;-30
2022/09/06 11:10:07;;;;;;;5.05;3.00;;;;;;;28.36;51.48;101570.13;5056721;27;96725;-30
2022/09/06 11:13:02;;;;;;;6.20;3.28;;;;;;;28.59;51.63;101567.25;5056023;27;100944;-32
2022/09/06 11:15:33;;;;;;;6.03;3.03;;;;;;;28.80;50.83;101567.28;5035008;27;101031;-30
2022/09/06 11:18:31;;;;;;;5.65;3.03;;;;;;;29.05;50.48;101575.25;5037886;27;100771;-30
2022/09/06 11:21:09;;;;;;;6.65;2.85;;;;;;;28.99;49.33;101576.06;5056865;27;96767;-30
2022/09/06 11:23:59;;;;;;;5.22;2.63;;;;;;;29.07;50.17;101577.88;5056440;27;96749;-30
2022/09/06 11:26:29;;;;;;;5.03;2.75;;;;;;;29.16;48.81;101585.06;5037495;27;101528;-30
2022/09/06 11:28:58;;;;;;;8.70;2.85;;;;;;;29.30;49.65;101586.94;5054801;27;101006;-30
2022/09/06 11:31:26;;;;;;;7.57;2.60;;;;;;;29.29;49.45;101587.97;5037968;27;96609;-29
2022/09/06 11:34:11;;;;;;;6.35;2.40;;;;;;;29.38;49.79;101588.72;5038477;27;96897;-30
2022/09/06 11:36:44;;;;;;;10.00;2.22;;;;;;;29.48;48.86;101575.25;5037307;27;101391;-30